Saco, Montana
Current Conditions -  °F | °C
As of 10:53 PM on Saturday 20 Dec 2014 (Local Time) from KGGW Reporting Station
Clear Clear  
Wind Chill: 13°   Ceiling: Unl
Heat Index: 24°   Visibility: 10mi
Dew Point: 19°   Wind: 12mph
Humidity: 81%   Direction: 110°ESE
Pressure: 29.64"   Gusts: NA
Location:  48.46°N, 107.34°W
Report Text: KGGW 210553Z AUTO 11010KT 10SM CLR M04/M07 A2964 RMK AO2 SLP063 T10441072 10017 21044 56024
Loading
Personal Weather Stations






























Interactive Weather Map New forecast layout! Learn more

10-Day Weather Forecast

Advertisements
Track Severe Weather on mobile